Flight Track Log - Related Links

Times and Time Zones

All times are in EST time to prevent confusion due to time zone crossing. See the FSR411 flight status page for this flight to view local times or setup timezone preferences in your user account.

Time Position Orientation Groundspeed Altitude Reporting Facility
EST Latitude Longitude Course Direction KTS MPH feet Rate Location/Type
Tue 07:36:05 AM 40.1053 -88.3094 353° North 214 246 11,000  Level Chicago Center
Tue 07:37:06 AM 40.1611 -88.3178 353° North 231 266 7,200 -344 Descending Chicago Center
Tue 07:38:07 AM 40.2383 -88.3306 353° North 250 288 10,300 1,869 Climbing Chicago Center
Tue 07:39:08 AM 40.3175 -88.3422 354° North 276 318 11,000 341 Climbing Chicago Center
Tue 07:40:10 AM 40.4094 -88.3558 354° North 321 369 11,000  Level Chicago Center
Tue 07:41:00 AM 40.4916 -88.3542 353° North  Level FlightAware Approximate
Tue 07:41:11 AM 40.5003 -88.3700 353° North 328 377 11,000  Level Chicago Center
Tue 07:42:12 AM 40.5922 -88.3847 353° North 332 382 11,000  Level Chicago Center
Tue 07:43:13 AM 40.6850 -88.3983 354° North 334 384 11,000  Level Chicago Center
Tue 07:44:15 AM 40.7956 -88.4172 353° North 333 383 11,000 -390 Level Chicago Center
Tue 07:45:16 AM 40.8883 -88.4314 353° North 335 386 10,200 -488 Descending Chicago Center
Tue 07:46:18 AM 40.9792 -88.4450 354° North 331 381 10,000 -98 Descending Chicago Center
Tue 07:47:19 AM 41.0731 -88.4597 353° North 323 372 10,000 -344 Level Chicago Center
Tue 07:48:20 AM 41.1506 -88.4719 353° North 280 322 9,300 -1,366 Descending Chicago Center
Tue 07:49:22 AM 41.2219 -88.4822 354° North 258 297 7,200 -1,610 Descending Chicago Center
Tue 07:50:23 AM 41.2953 -88.4953 352° North 248 285 6,000 -585 Descending Chicago Center
Tue 07:51:25 AM 41.3606 -88.5050 354° North 238 274 6,000  Level Chicago Center
Tue 07:52:26 AM 41.4161 -88.4411 41° Northeast 270 311 6,000 -146 Level Chicago Center
Tue 07:53:28 AM 41.4544 -88.3461 62° Northeast 275 316 5,700 -488 Descending Chicago Center
Tue 07:54:29 AM 41.4792 -88.2500 71° East 274 315 5,000 -341 Descending Chicago Center
Tue 07:55:31 AM 41.5044 -88.1567 70° East 271 312 5,000  Level Chicago Center
Tue 07:56:33 AM 41.5317 -88.0564 70° East 272 313 5,000  Level Chicago Center
Tue 07:57:34 AM 41.5572 -87.9578 71° East 281 323 5,000 -293 Level Chicago Center
Tue 07:58:36 AM 41.5825 -87.8639 70° East 272 313 4,400 -864 Descending Chicago Center
Tue 07:59:39 AM 41.5975 -87.7667 78° East 257 296 3,200 -672 Descending Chicago Center
Tue 08:00:41 AM 41.6092 -87.6750 80° East 237 273 3,000 -145 Descending Chicago Center
Tue 08:01:43 AM 41.6528 -87.6756 359° North 172 198 2,900 -244 Descending Chicago Center
Tue 08:02:44 AM 41.6989 -87.6942 343° North 157 181 2,500 -488 Descending Chicago Center
Tue 08:03:46 AM 41.7397 -87.7081 346° North 152 175 1,900 -726 Descending Chicago Center
Tue 08:04:48 AM 41.7722 -87.7356 328° Northwest 123 142 1,000 -532 Descending Chicago Center
Tue 08:05:50 AM 41.7933 -87.7664 313° West 119 137 800 -194 Descending Chicago Center

Login

Don't have an account? Register now (free) for customized features, flight alerts, and more!